sensor_id;sensor_type;location;lat;lon;timestamp;P1;durP1;ratioP1;P2;durP2;ratioP2
5127;SDS011;2582;48.770;9.190;2023-10-19T00:01:54;21.10;;;18.90;;
5127;SDS011;2582;48.770;9.190;2023-10-19T00:04:21;22.97;;;20.70;;
5127;SDS011;2582;48.770;9.190;2023-10-19T00:06:47;20.17;;;18.27;;
5127;SDS011;2582;48.770;9.190;2023-10-19T00:09:13;19.73;;;17.77;;
5127;SDS011;2582;48.770;9.190;2023-10-19T00:11:40;18.33;;;16.43;;
5127;SDS011;2582;48.770;9.190;2023-10-19T00:14:06;18.90;;;17.00;;
5127;SDS011;2582;48.770;9.190;2023-10-19T00:16:44;16.83;;;15.23;;
5127;SDS011;2582;48.770;9.190;2023-10-19T00:19:22;17.23;;;15.43;;
5127;SDS011;2582;48.770;9.190;2023-10-19T00:21:47;18.87;;;17.07;;
5127;SDS011;2582;48.770;9.190;2023-10-19T00:24:17;16.17;;;14.60;;
5127;SDS011;2582;48.770;9.190;2023-10-19T00:26:47;17.30;;;15.60;;
5127;SDS011;2582;48.770;9.190;2023-10-19T00:29:13;18.50;;;15.07;;
5127;SDS011;2582;48.770;9.190;2023-10-19T00:31:57;16.70;;;14.93;;
5127;SDS011;2582;48.770;9.190;2023-10-19T00:34:27;15.87;;;14.37;;
5127;SDS011;2582;48.770;9.190;2023-10-19T00:36:56;14.47;;;13.03;;
5127;SDS011;2582;48.770;9.190;2023-10-19T00:39:22;13.83;;;12.53;;
5127;SDS011;2582;48.770;9.190;2023-10-19T00:41:52;14.17;;;12.77;;
5127;SDS011;2582;48.770;9.190;2023-10-19T00:44:23;12.47;;;11.10;;
5127;SDS011;2582;48.770;9.190;2023-10-19T00:47:00;13.87;;;11.80;;
5127;SDS011;2582;48.770;9.190;2023-10-19T00:49:32;12.70;;;11.33;;
5127;SDS011;2582;48.770;9.190;2023-10-19T00:51:58;15.77;;;14.27;;
5127;SDS011;2582;48.770;9.190;2023-10-19T00:54:35;12.77;;;11.60;;
5127;SDS011;2582;48.770;9.190;2023-10-19T00:57:17;12.40;;;11.20;;
5127;SDS011;2582;48.770;9.190;2023-10-19T00:59:47;15.63;;;14.00;;
5127;SDS011;2582;48.770;9.190;2023-10-19T01:02:19;14.10;;;12.70;;
5127;SDS011;2582;48.770;9.190;2023-10-19T01:04:50;14.07;;;12.67;;
5127;SDS011;2582;48.770;9.190;2023-10-19T01:07:30;12.80;;;11.60;;
5127;SDS011;2582;48.770;9.190;2023-10-19T01:10:02;12.87;;;11.03;;
5127;SDS011;2582;48.770;9.190;2023-10-19T01:12:37;13.17;;;11.93;;
5127;SDS011;2582;48.770;9.190;2023-10-19T01:15:15;14.03;;;12.63;;
5127;SDS011;2582;48.770;9.190;2023-10-19T01:17:46;13.57;;;12.17;;
5127;SDS011;2582;48.770;9.190;2023-10-19T01:20:19;13.63;;;12.17;;
5127;SDS011;2582;48.770;9.190;2023-10-19T01:23:07;12.80;;;11.30;;
5127;SDS011;2582;48.770;9.190;2023-10-19T01:25:43;11.50;;;10.40;;
5127;SDS011;2582;48.770;9.190;2023-10-19T01:28:27;10.03;;;8.53;;
5127;SDS011;2582;48.770;9.190;2023-10-19T01:31:06;10.17;;;9.17;;
5127;SDS011;2582;48.770;9.190;2023-10-19T01:33:41;10.83;;;9.30;;
5127;SDS011;2582;48.770;9.190;2023-10-19T01:36:09;12.03;;;8.50;;
5127;SDS011;2582;48.770;9.190;2023-10-19T01:38:52;9.30;;;8.07;;
5127;SDS011;2582;48.770;9.190;2023-10-19T01:41:25;11.23;;;7.60;;
5127;SDS011;2582;48.770;9.190;2023-10-19T01:43:52;8.67;;;7.83;;
5127;SDS011;2582;48.770;9.190;2023-10-19T01:46:29;9.47;;;8.57;;
5127;SDS011;2582;48.770;9.190;2023-10-19T01:49:01;7.53;;;6.50;;
5127;SDS011;2582;48.770;9.190;2023-10-19T01:51:29;10.07;;;8.77;;
5127;SDS011;2582;48.770;9.190;2023-10-19T01:53:57;8.63;;;7.47;;
5127;SDS011;2582;48.770;9.190;2023-10-19T01:56:25;8.67;;;7.77;;
5127;SDS011;2582;48.770;9.190;2023-10-19T01:58:52;9.20;;;8.20;;
5127;SDS011;2582;48.770;9.190;2023-10-19T02:01:19;7.50;;;6.80;;
5127;SDS011;2582;48.770;9.190;2023-10-19T02:03:44;7.50;;;6.80;;
5127;SDS011;2582;48.770;9.190;2023-10-19T02:06:12;8.40;;;7.33;;
5127;SDS011;2582;48.770;9.190;2023-10-19T02:08:51;8.20;;;7.50;;
5127;SDS011;2582;48.770;9.190;2023-10-19T02:11:46;6.80;;;6.20;;
5127;SDS011;2582;48.770;9.190;2023-10-19T02:14:13;7.37;;;6.67;;
5127;SDS011;2582;48.770;9.190;2023-10-19T02:16:44;10.90;;;9.80;;
5127;SDS011;2582;48.770;9.190;2023-10-19T02:19:17;7.80;;;7.10;;
5127;SDS011;2582;48.770;9.190;2023-10-19T02:21:45;8.77;;;7.97;;
5127;SDS011;2582;48.770;9.190;2023-10-19T02:24:13;9.10;;;8.20;;
5127;SDS011;2582;48.770;9.190;2023-10-19T02:26:39;7.03;;;6.40;;
5127;SDS011;2582;48.770;9.190;2023-10-19T02:29:09;9.70;;;8.80;;
5127;SDS011;2582;48.770;9.190;2023-10-19T02:31:35;7.40;;;6.50;;
5127;SDS011;2582;48.770;9.190;2023-10-19T02:34:05;8.80;;;8.00;;
5127;SDS011;2582;48.770;9.190;2023-10-19T02:36:37;10.73;;;9.60;;
5127;SDS011;2582;48.770;9.190;2023-10-19T02:39:05;9.80;;;8.00;;
5127;SDS011;2582;48.770;9.190;2023-10-19T02:44:01;10.63;;;8.40;;
5127;SDS011;2582;48.770;9.190;2023-10-19T02:46:34;9.80;;;8.80;;
5127;SDS011;2582;48.770;9.190;2023-10-19T02:49:03;9.23;;;8.43;;
5127;SDS011;2582;48.770;9.190;2023-10-19T02:51:37;7.20;;;6.50;;
5127;SDS011;2582;48.770;9.190;2023-10-19T02:54:03;10.30;;;9.23;;
5127;SDS011;2582;48.770;9.190;2023-10-19T02:56:32;8.10;;;7.37;;
5127;SDS011;2582;48.770;9.190;2023-10-19T02:59:00;7.20;;;6.53;;
5127;SDS011;2582;48.770;9.190;2023-10-19T03:01:28;12.70;;;9.10;;
5127;SDS011;2582;48.770;9.190;2023-10-19T03:03:56;6.97;;;6.27;;
5127;SDS011;2582;48.770;9.190;2023-10-19T03:06:25;6.73;;;5.90;;
5127;SDS011;2582;48.770;9.190;2023-10-19T03:08:57;6.80;;;6.20;;
5127;SDS011;2582;48.770;9.190;2023-10-19T03:11:26;8.53;;;7.00;;
5127;SDS011;2582;48.770;9.190;2023-10-19T03:13:53;10.20;;;7.10;;
5127;SDS011;2582;48.770;9.190;2023-10-19T03:16:19;6.10;;;5.57;;
5127;SDS011;2582;48.770;9.190;2023-10-19T03:18:46;9.93;;;8.93;;
5127;SDS011;2582;48.770;9.190;2023-10-19T03:21:12;13.67;;;6.50;;
5127;SDS011;2582;48.770;9.190;2023-10-19T03:23:38;7.90;;;6.43;;
5127;SDS011;2582;48.770;9.190;2023-10-19T03:26:06;7.10;;;6.40;;
5127;SDS011;2582;48.770;9.190;2023-10-19T03:28:50;7.33;;;6.43;;
5127;SDS011;2582;48.770;9.190;2023-10-19T03:31:20;9.40;;;6.83;;
5127;SDS011;2582;48.770;9.190;2023-10-19T03:33:50;6.20;;;5.60;;
5127;SDS011;2582;48.770;9.190;2023-10-19T03:36:25;10.03;;;6.43;;
5127;SDS011;2582;48.770;9.190;2023-10-19T03:38:51;10.30;;;7.80;;
5127;SDS011;2582;48.770;9.190;2023-10-19T03:41:19;7.03;;;6.33;;
5127;SDS011;2582;48.770;9.190;2023-10-19T03:43:54;6.83;;;6.13;;
5127;SDS011;2582;48.770;9.190;2023-10-19T03:46:22;5.83;;;5.33;;
5127;SDS011;2582;48.770;9.190;2023-10-19T03:49:00;5.43;;;4.90;;
5127;SDS011;2582;48.770;9.190;2023-10-19T03:51:35;6.10;;;5.50;;
5127;SDS011;2582;48.770;9.190;2023-10-19T03:54:05;6.03;;;5.40;;
5127;SDS011;2582;48.770;9.190;2023-10-19T03:56:46;8.57;;;6.80;;
5127;SDS011;2582;48.770;9.190;2023-10-19T03:59:14;10.17;;;8.10;;
5127;SDS011;2582;48.770;9.190;2023-10-19T04:01:41;9.33;;;7.07;;
5127;SDS011;2582;48.770;9.190;2023-10-19T04:04:08;7.00;;;6.40;;
5127;SDS011;2582;48.770;9.190;2023-10-19T04:06:37;7.27;;;6.57;;
5127;SDS011;2582;48.770;9.190;2023-10-19T04:09:03;6.53;;;5.30;;
5127;SDS011;2582;48.770;9.190;2023-10-19T04:11:32;5.70;;;5.13;;
5127;SDS011;2582;48.770;9.190;2023-10-19T04:14:01;9.13;;;5.50;;
5127;SDS011;2582;48.770;9.190;2023-10-19T04:16:29;6.27;;;5.70;;
5127;SDS011;2582;48.770;9.190;2023-10-19T04:18:56;9.37;;;6.90;;
5127;SDS011;2582;48.770;9.190;2023-10-19T04:21:23;8.37;;;6.33;;
5127;SDS011;2582;48.770;9.190;2023-10-19T04:23:48;6.40;;;5.80;;
5127;SDS011;2582;48.770;9.190;2023-10-19T04:26:14;7.13;;;6.40;;
5127;SDS011;2582;48.770;9.190;2023-10-19T04:28:43;5.90;;;5.30;;
5127;SDS011;2582;48.770;9.190;2023-10-19T04:31:18;10.00;;;9.07;;
5127;SDS011;2582;48.770;9.190;2023-10-19T04:33:44;7.10;;;6.40;;
5127;SDS011;2582;48.770;9.190;2023-10-19T04:36:14;4.63;;;4.23;;
5127;SDS011;2582;48.770;9.190;2023-10-19T04:38:41;9.03;;;7.40;;
5127;SDS011;2582;48.770;9.190;2023-10-19T04:41:09;7.43;;;6.63;;
5127;SDS011;2582;48.770;9.190;2023-10-19T04:43:36;6.63;;;6.03;;
5127;SDS011;2582;48.770;9.190;2023-10-19T04:46:04;4.97;;;4.57;;
5127;SDS011;2582;48.770;9.190;2023-10-19T04:48:36;6.37;;;5.17;;
5127;SDS011;2582;48.770;9.190;2023-10-19T04:51:04;6.37;;;5.70;;
5127;SDS011;2582;48.770;9.190;2023-10-19T04:53:31;7.37;;;6.67;;
5127;SDS011;2582;48.770;9.190;2023-10-19T04:55:57;7.80;;;6.20;;
5127;SDS011;2582;48.770;9.190;2023-10-19T04:58:25;6.93;;;6.33;;
5127;SDS011;2582;48.770;9.190;2023-10-19T05:00:53;7.13;;;5.60;;
5127;SDS011;2582;48.770;9.190;2023-10-19T05:03:19;6.97;;;6.27;;
5127;SDS011;2582;48.770;9.190;2023-10-19T05:05:45;6.50;;;5.90;;
5127;SDS011;2582;48.770;9.190;2023-10-19T05:08:11;7.00;;;6.27;;
5127;SDS011;2582;48.770;9.190;2023-10-19T05:10:36;7.93;;;6.70;;
5127;SDS011;2582;48.770;9.190;2023-10-19T05:13:02;5.80;;;5.30;;
5127;SDS011;2582;48.770;9.190;2023-10-19T05:15:28;6.37;;;5.00;;
5127;SDS011;2582;48.770;9.190;2023-10-19T05:17:54;6.97;;;6.37;;
5127;SDS011;2582;48.770;9.190;2023-10-19T05:20:20;4.67;;;4.27;;
5127;SDS011;2582;48.770;9.190;2023-10-19T05:22:46;5.23;;;4.73;;
5127;SDS011;2582;48.770;9.190;2023-10-19T05:25:12;5.50;;;5.00;;
5127;SDS011;2582;48.770;9.190;2023-10-19T05:27:38;5.80;;;4.60;;
5127;SDS011;2582;48.770;9.190;2023-10-19T05:30:04;9.10;;;5.87;;
5127;SDS011;2582;48.770;9.190;2023-10-19T05:32:31;5.93;;;5.10;;
5127;SDS011;2582;48.770;9.190;2023-10-19T05:34:56;7.63;;;6.90;;
5127;SDS011;2582;48.770;9.190;2023-10-19T05:37:22;6.47;;;5.83;;
5127;SDS011;2582;48.770;9.190;2023-10-19T05:39:50;9.40;;;8.47;;
5127;SDS011;2582;48.770;9.190;2023-10-19T05:42:17;6.80;;;5.80;;
5127;SDS011;2582;48.770;9.190;2023-10-19T05:44:42;8.10;;;6.87;;
5127;SDS011;2582;48.770;9.190;2023-10-19T05:47:08;7.00;;;6.30;;
5127;SDS011;2582;48.770;9.190;2023-10-19T05:49:34;8.67;;;6.07;;
5127;SDS011;2582;48.770;9.190;2023-10-19T05:51:59;5.83;;;5.33;;
5127;SDS011;2582;48.770;9.190;2023-10-19T05:54:25;11.07;;;7.60;;
5127;SDS011;2582;48.770;9.190;2023-10-19T05:56:52;8.47;;;7.43;;
5127;SDS011;2582;48.770;9.190;2023-10-19T05:59:17;7.33;;;6.63;;
5127;SDS011;2582;48.770;9.190;2023-10-19T06:01:43;7.90;;;7.17;;
5127;SDS011;2582;48.770;9.190;2023-10-19T06:04:12;6.23;;;5.63;;
5127;SDS011;2582;48.770;9.190;2023-10-19T06:06:38;11.30;;;5.57;;
5127;SDS011;2582;48.770;9.190;2023-10-19T06:09:07;8.60;;;7.70;;
5127;SDS011;2582;48.770;9.190;2023-10-19T06:11:36;6.40;;;5.80;;
5127;SDS011;2582;48.770;9.190;2023-10-19T06:14:07;6.07;;;5.47;;
5127;SDS011;2582;48.770;9.190;2023-10-19T06:16:34;10.57;;;9.07;;
5127;SDS011;2582;48.770;9.190;2023-10-19T06:19:00;17.07;;;10.23;;
5127;SDS011;2582;48.770;9.190;2023-10-19T06:21:26;20.40;;;12.80;;
5127;SDS011;2582;48.770;9.190;2023-10-19T06:23:51;14.17;;;11.57;;
5127;SDS011;2582;48.770;9.190;2023-10-19T06:26:18;29.50;;;16.10;;
5127;SDS011;2582;48.770;9.190;2023-10-19T06:28:44;27.90;;;17.97;;
5127;SDS011;2582;48.770;9.190;2023-10-19T06:31:10;21.00;;;13.20;;
5127;SDS011;2582;48.770;9.190;2023-10-19T06:33:36;19.23;;;13.37;;
5127;SDS011;2582;48.770;9.190;2023-10-19T06:36:06;15.80;;;11.53;;
5127;SDS011;2582;48.770;9.190;2023-10-19T06:38:32;12.37;;;9.60;;
5127;SDS011;2582;48.770;9.190;2023-10-19T06:40:57;13.77;;;10.40;;
5127;SDS011;2582;48.770;9.190;2023-10-19T06:43:24;16.63;;;11.50;;
5127;SDS011;2582;48.770;9.190;2023-10-19T06:45:53;9.30;;;8.33;;
5127;SDS011;2582;48.770;9.190;2023-10-19T06:48:20;12.57;;;8.90;;
5127;SDS011;2582;48.770;9.190;2023-10-19T06:50:46;11.90;;;10.03;;
5127;SDS011;2582;48.770;9.190;2023-10-19T06:53:11;12.10;;;9.70;;
5127;SDS011;2582;48.770;9.190;2023-10-19T06:55:37;10.43;;;9.33;;
5127;SDS011;2582;48.770;9.190;2023-10-19T06:58:03;10.83;;;9.67;;
5127;SDS011;2582;48.770;9.190;2023-10-19T07:00:29;11.97;;;10.77;;
5127;SDS011;2582;48.770;9.190;2023-10-19T07:02:56;15.93;;;12.57;;
5127;SDS011;2582;48.770;9.190;2023-10-19T07:05:25;15.10;;;13.60;;
5127;SDS011;2582;48.770;9.190;2023-10-19T07:07:54;12.10;;;10.70;;
5127;SDS011;2582;48.770;9.190;2023-10-19T07:10:21;20.93;;;14.07;;
5127;SDS011;2582;48.770;9.190;2023-10-19T07:12:50;18.37;;;13.70;;
5127;SDS011;2582;48.770;9.190;2023-10-19T07:15:18;19.50;;;14.60;;
5127;SDS011;2582;48.770;9.190;2023-10-19T07:17:44;18.10;;;15.27;;
5127;SDS011;2582;48.770;9.190;2023-10-19T07:20:12;19.33;;;15.57;;
5127;SDS011;2582;48.770;9.190;2023-10-19T07:22:55;18.47;;;14.63;;
5127;SDS011;2582;48.770;9.190;2023-10-19T07:25:21;18.30;;;13.63;;
5127;SDS011;2582;48.770;9.190;2023-10-19T07:27:50;18.30;;;13.40;;
5127;SDS011;2582;48.770;9.190;2023-10-19T07:30:17;26.53;;;16.50;;
5127;SDS011;2582;48.770;9.190;2023-10-19T07:32:51;24.60;;;16.47;;
5127;SDS011;2582;48.770;9.190;2023-10-19T07:35:19;19.63;;;15.20;;
5127;SDS011;2582;48.770;9.190;2023-10-19T07:37:47;22.30;;;17.97;;
5127;SDS011;2582;48.770;9.190;2023-10-19T07:40:14;19.70;;;15.40;;
5127;SDS011;2582;48.770;9.190;2023-10-19T07:42:40;24.90;;;16.10;;
5127;SDS011;2582;48.770;9.190;2023-10-19T07:45:07;18.20;;;13.87;;
5127;SDS011;2582;48.770;9.190;2023-10-19T07:47:36;15.63;;;13.93;;
5127;SDS011;2582;48.770;9.190;2023-10-19T07:50:05;20.37;;;13.60;;
5127;SDS011;2582;48.770;9.190;2023-10-19T07:52:37;17.33;;;13.60;;
5127;SDS011;2582;48.770;9.190;2023-10-19T07:55:04;18.33;;;12.63;;
5127;SDS011;2582;48.770;9.190;2023-10-19T07:57:32;19.03;;;13.47;;
5127;SDS011;2582;48.770;9.190;2023-10-19T07:59:58;17.40;;;14.30;;
5127;SDS011;2582;48.770;9.190;2023-10-19T08:02:24;18.43;;;14.37;;
5127;SDS011;2582;48.770;9.190;2023-10-19T08:04:50;19.37;;;16.10;;
5127;SDS011;2582;48.770;9.190;2023-10-19T08:07:16;16.67;;;14.03;;
5127;SDS011;2582;48.770;9.190;2023-10-19T08:09:42;15.90;;;13.73;;
5127;SDS011;2582;48.770;9.190;2023-10-19T08:12:08;17.93;;;15.23;;
5127;SDS011;2582;48.770;9.190;2023-10-19T08:14:34;22.03;;;14.87;;
5127;SDS011;2582;48.770;9.190;2023-10-19T08:17:00;15.83;;;14.00;;
5127;SDS011;2582;48.770;9.190;2023-10-19T08:19:29;16.43;;;12.33;;
5127;SDS011;2582;48.770;9.190;2023-10-19T08:21:57;20.10;;;15.97;;
5127;SDS011;2582;48.770;9.190;2023-10-19T08:24:23;18.63;;;14.10;;
5127;SDS011;2582;48.770;9.190;2023-10-19T08:26:49;15.77;;;13.33;;
5127;SDS011;2582;48.770;9.190;2023-10-19T08:29:16;14.73;;;13.27;;
5127;SDS011;2582;48.770;9.190;2023-10-19T08:31:44;19.67;;;13.70;;
5127;SDS011;2582;48.770;9.190;2023-10-19T08:34:10;13.50;;;12.20;;
5127;SDS011;2582;48.770;9.190;2023-10-19T08:36:40;14.73;;;13.00;;
5127;SDS011;2582;48.770;9.190;2023-10-19T08:39:09;12.53;;;11.17;;
5127;SDS011;2582;48.770;9.190;2023-10-19T08:41:37;14.10;;;12.50;;
5127;SDS011;2582;48.770;9.190;2023-10-19T08:44:06;14.57;;;12.30;;
5127;SDS011;2582;48.770;9.190;2023-10-19T08:46:42;16.23;;;12.30;;
5127;SDS011;2582;48.770;9.190;2023-10-19T08:49:10;17.63;;;13.17;;
5127;SDS011;2582;48.770;9.190;2023-10-19T08:51:39;13.10;;;11.63;;
5127;SDS011;2582;48.770;9.190;2023-10-19T08:54:09;13.93;;;10.83;;
5127;SDS011;2582;48.770;9.190;2023-10-19T08:56:37;12.20;;;10.90;;
5127;SDS011;2582;48.770;9.190;2023-10-19T08:59:03;12.47;;;11.13;;
5127;SDS011;2582;48.770;9.190;2023-10-19T09:01:31;15.27;;;11.70;;
5127;SDS011;2582;48.770;9.190;2023-10-19T09:04:00;20.67;;;13.70;;
5127;SDS011;2582;48.770;9.190;2023-10-19T09:06:27;13.80;;;12.33;;
5127;SDS011;2582;48.770;9.190;2023-10-19T09:08:54;13.27;;;11.97;;
5127;SDS011;2582;48.770;9.190;2023-10-19T09:11:20;16.70;;;13.10;;
5127;SDS011;2582;48.770;9.190;2023-10-19T09:13:47;17.13;;;13.07;;
5127;SDS011;2582;48.770;9.190;2023-10-19T09:16:24;14.67;;;12.20;;
5127;SDS011;2582;48.770;9.190;2023-10-19T09:18:51;13.57;;;12.17;;
5127;SDS011;2582;48.770;9.190;2023-10-19T09:21:18;9.17;;;8.23;;
5127;SDS011;2582;48.770;9.190;2023-10-19T09:23:51;10.20;;;8.83;;
5127;SDS011;2582;48.770;9.190;2023-10-19T09:26:18;10.33;;;7.20;;
5127;SDS011;2582;48.770;9.190;2023-10-19T09:28:48;9.00;;;8.10;;
5127;SDS011;2582;48.770;9.190;2023-10-19T09:31:15;12.57;;;7.60;;
5127;SDS011;2582;48.770;9.190;2023-10-19T09:33:42;12.03;;;7.43;;
5127;SDS011;2582;48.770;9.190;2023-10-19T09:36:12;11.93;;;8.50;;
5127;SDS011;2582;48.770;9.190;2023-10-19T09:38:49;10.87;;;7.60;;
5127;SDS011;2582;48.770;9.190;2023-10-19T09:41:19;8.90;;;6.50;;
5127;SDS011;2582;48.770;9.190;2023-10-19T09:43:57;8.90;;;8.00;;
5127;SDS011;2582;48.770;9.190;2023-10-19T09:46:31;4.63;;;4.20;;
5127;SDS011;2582;48.770;9.190;2023-10-19T09:48:57;8.93;;;5.87;;
5127;SDS011;2582;48.770;9.190;2023-10-19T09:51:23;7.00;;;5.00;;
5127;SDS011;2582;48.770;9.190;2023-10-19T09:53:54;5.63;;;4.67;;
5127;SDS011;2582;48.770;9.190;2023-10-19T09:56:26;5.77;;;3.97;;
5127;SDS011;2582;48.770;9.190;2023-10-19T09:59:02;5.07;;;4.23;;
5127;SDS011;2582;48.770;9.190;2023-10-19T10:02:15;5.10;;;4.53;;
5127;SDS011;2582;48.770;9.190;2023-10-19T10:04:40;4.47;;;4.07;;
5127;SDS011;2582;48.770;9.190;2023-10-19T10:07:08;6.67;;;5.37;;
5127;SDS011;2582;48.770;9.190;2023-10-19T10:09:41;10.40;;;5.50;;
5127;SDS011;2582;48.770;9.190;2023-10-19T10:12:21;5.40;;;4.80;;
5127;SDS011;2582;48.770;9.190;2023-10-19T10:14:58;5.20;;;4.70;;
5127;SDS011;2582;48.770;9.190;2023-10-19T10:17:34;6.67;;;4.73;;
5127;SDS011;2582;48.770;9.190;2023-10-19T10:22:38;4.97;;;4.50;;
5127;SDS011;2582;48.770;9.190;2023-10-19T10:25:04;5.10;;;4.20;;
5127;SDS011;2582;48.770;9.190;2023-10-19T10:27:30;8.87;;;4.50;;
5127;SDS011;2582;48.770;9.190;2023-10-19T10:29:59;5.03;;;3.77;;
5127;SDS011;2582;48.770;9.190;2023-10-19T10:32:43;3.13;;;2.83;;
5127;SDS011;2582;48.770;9.190;2023-10-19T10:35:13;6.00;;;3.00;;
5127;SDS011;2582;48.770;9.190;2023-10-19T10:38:02;3.53;;;3.00;;
5127;SDS011;2582;48.770;9.190;2023-10-19T10:40:30;4.80;;;3.77;;
5127;SDS011;2582;48.770;9.190;2023-10-19T10:43:06;4.60;;;3.00;;
5127;SDS011;2582;48.770;9.190;2023-10-19T10:45:32;3.70;;;3.30;;
5127;SDS011;2582;48.770;9.190;2023-10-19T10:47:58;3.63;;;3.07;;
5127;SDS011;2582;48.770;9.190;2023-10-19T10:50:26;3.37;;;3.07;;
5127;SDS011;2582;48.770;9.190;2023-10-19T10:52:53;3.60;;;2.93;;
5127;SDS011;2582;48.770;9.190;2023-10-19T10:55:22;3.47;;;2.73;;
5127;SDS011;2582;48.770;9.190;2023-10-19T10:57:50;5.00;;;3.93;;
5127;SDS011;2582;48.770;9.190;2023-10-19T11:00:16;3.97;;;3.57;;
5127;SDS011;2582;48.770;9.190;2023-10-19T11:02:43;3.50;;;3.10;;
5127;SDS011;2582;48.770;9.190;2023-10-19T11:05:23;4.13;;;3.00;;
5127;SDS011;2582;48.770;9.190;2023-10-19T11:10:46;4.83;;;3.17;;
5127;SDS011;2582;48.770;9.190;2023-10-19T11:13:16;3.30;;;3.00;;
5127;SDS011;2582;48.770;9.190;2023-10-19T11:15:54;4.10;;;3.70;;
5127;SDS011;2582;48.770;9.190;2023-10-19T11:18:28;4.63;;;3.00;;
5127;SDS011;2582;48.770;9.190;2023-10-19T11:20:54;3.70;;;3.40;;
5127;SDS011;2582;48.770;9.190;2023-10-19T11:23:23;5.20;;;3.53;;
5127;SDS011;2582;48.770;9.190;2023-10-19T11:26:10;3.23;;;2.87;;
5127;SDS011;2582;48.770;9.190;2023-10-19T11:28:36;3.80;;;2.93;;
5127;SDS011;2582;48.770;9.190;2023-10-19T11:31:19;4.83;;;4.10;;
5127;SDS011;2582;48.770;9.190;2023-10-19T11:33:48;4.30;;;3.10;;
5127;SDS011;2582;48.770;9.190;2023-10-19T11:36:16;3.43;;;2.87;;
5127;SDS011;2582;48.770;9.190;2023-10-19T11:38:43;6.40;;;3.60;;
5127;SDS011;2582;48.770;9.190;2023-10-19T11:41:10;4.23;;;2.70;;
5127;SDS011;2582;48.770;9.190;2023-10-19T11:43:38;3.73;;;3.20;;
5127;SDS011;2582;48.770;9.190;2023-10-19T11:46:07;5.70;;;3.57;;
5127;SDS011;2582;48.770;9.190;2023-10-19T11:48:34;7.23;;;4.10;;
5127;SDS011;2582;48.770;9.190;2023-10-19T11:51:01;4.07;;;3.70;;
5127;SDS011;2582;48.770;9.190;2023-10-19T11:53:31;5.60;;;4.03;;
5127;SDS011;2582;48.770;9.190;2023-10-19T11:56:02;3.17;;;2.87;;
5127;SDS011;2582;48.770;9.190;2023-10-19T11:58:29;4.40;;;3.87;;
5127;SDS011;2582;48.770;9.190;2023-10-19T12:00:57;4.40;;;3.67;;
5127;SDS011;2582;48.770;9.190;2023-10-19T12:03:23;3.37;;;3.07;;
5127;SDS011;2582;48.770;9.190;2023-10-19T12:05:50;3.27;;;2.97;;
5127;SDS011;2582;48.770;9.190;2023-10-19T12:08:18;3.10;;;2.80;;
5127;SDS011;2582;48.770;9.190;2023-10-19T12:10:43;2.83;;;2.60;;
5127;SDS011;2582;48.770;9.190;2023-10-19T12:13:09;2.90;;;2.53;;
5127;SDS011;2582;48.770;9.190;2023-10-19T12:15:35;4.33;;;2.70;;
5127;SDS011;2582;48.770;9.190;2023-10-19T12:18:00;2.93;;;2.43;;
5127;SDS011;2582;48.770;9.190;2023-10-19T12:20:30;3.03;;;2.30;;
5127;SDS011;2582;48.770;9.190;2023-10-19T12:22:56;2.27;;;2.07;;
5127;SDS011;2582;48.770;9.190;2023-10-19T12:25:24;5.50;;;2.50;;
5127;SDS011;2582;48.770;9.190;2023-10-19T12:27:57;3.77;;;3.47;;
5127;SDS011;2582;48.770;9.190;2023-10-19T12:30:23;3.80;;;3.30;;
5127;SDS011;2582;48.770;9.190;2023-10-19T12:32:51;5.43;;;4.00;;
5127;SDS011;2582;48.770;9.190;2023-10-19T12:35:17;4.57;;;4.17;;
5127;SDS011;2582;48.770;9.190;2023-10-19T12:37:49;5.70;;;4.73;;
5127;SDS011;2582;48.770;9.190;2023-10-19T12:40:18;8.30;;;6.33;;
5127;SDS011;2582;48.770;9.190;2023-10-19T12:42:54;6.13;;;5.53;;
5127;SDS011;2582;48.770;9.190;2023-10-19T12:45:26;5.50;;;5.00;;
5127;SDS011;2582;48.770;9.190;2023-10-19T12:47:52;6.70;;;5.47;;
5127;SDS011;2582;48.770;9.190;2023-10-19T12:50:18;7.33;;;5.97;;
5127;SDS011;2582;48.770;9.190;2023-10-19T12:52:48;6.70;;;6.10;;
5127;SDS011;2582;48.770;9.190;2023-10-19T12:55:17;8.07;;;6.73;;
5127;SDS011;2582;48.770;9.190;2023-10-19T12:57:43;8.10;;;7.40;;
5127;SDS011;2582;48.770;9.190;2023-10-19T13:00:09;10.50;;;9.50;;
5127;SDS011;2582;48.770;9.190;2023-10-19T13:02:53;8.03;;;7.33;;
5127;SDS011;2582;48.770;9.190;2023-10-19T13:05:25;9.17;;;8.37;;
5127;SDS011;2582;48.770;9.190;2023-10-19T13:07:52;8.93;;;8.13;;
5127;SDS011;2582;48.770;9.190;2023-10-19T13:10:18;8.07;;;7.37;;
5127;SDS011;2582;48.770;9.190;2023-10-19T13:12:44;7.40;;;6.70;;
5127;SDS011;2582;48.770;9.190;2023-10-19T13:15:10;8.37;;;7.60;;
5127;SDS011;2582;48.770;9.190;2023-10-19T13:17:39;8.40;;;7.60;;
5127;SDS011;2582;48.770;9.190;2023-10-19T13:20:05;6.40;;;5.80;;
5127;SDS011;2582;48.770;9.190;2023-10-19T13:22:41;9.33;;;8.43;;
5127;SDS011;2582;48.770;9.190;2023-10-19T13:25:07;10.60;;;9.60;;
5127;SDS011;2582;48.770;9.190;2023-10-19T13:27:42;9.20;;;7.70;;
5127;SDS011;2582;48.770;9.190;2023-10-19T13:30:14;8.37;;;7.57;;
5127;SDS011;2582;48.770;9.190;2023-10-19T13:32:39;8.80;;;7.90;;
5127;SDS011;2582;48.770;9.190;2023-10-19T13:35:07;10.93;;;9.43;;
5127;SDS011;2582;48.770;9.190;2023-10-19T13:37:33;11.90;;;10.57;;
5127;SDS011;2582;48.770;9.190;2023-10-19T13:39:58;8.10;;;7.37;;
5127;SDS011;2582;48.770;9.190;2023-10-19T13:42:24;10.40;;;9.37;;
5127;SDS011;2582;48.770;9.190;2023-10-19T13:44:50;9.40;;;8.53;;
5127;SDS011;2582;48.770;9.190;2023-10-19T13:47:15;9.17;;;8.40;;
5127;SDS011;2582;48.770;9.190;2023-10-19T13:49:41;10.33;;;9.33;;
5127;SDS011;2582;48.770;9.190;2023-10-19T13:52:07;13.87;;;10.77;;
5127;SDS011;2582;48.770;9.190;2023-10-19T13:54:35;10.00;;;9.00;;
5127;SDS011;2582;48.770;9.190;2023-10-19T13:57:02;10.77;;;8.80;;
5127;SDS011;2582;48.770;9.190;2023-10-19T13:59:28;8.53;;;7.73;;
5127;SDS011;2582;48.770;9.190;2023-10-19T14:01:54;8.63;;;7.93;;
5127;SDS011;2582;48.770;9.190;2023-10-19T14:04:23;9.20;;;8.40;;
5127;SDS011;2582;48.770;9.190;2023-10-19T14:06:51;8.97;;;8.13;;
5127;SDS011;2582;48.770;9.190;2023-10-19T14:09:17;10.60;;;9.57;;
5127;SDS011;2582;48.770;9.190;2023-10-19T14:11:43;9.37;;;8.47;;
5127;SDS011;2582;48.770;9.190;2023-10-19T14:14:12;8.43;;;7.63;;
5127;SDS011;2582;48.770;9.190;2023-10-19T14:16:38;8.60;;;7.80;;
5127;SDS011;2582;48.770;9.190;2023-10-19T14:19:04;10.50;;;9.47;;
5127;SDS011;2582;48.770;9.190;2023-10-19T14:21:30;8.53;;;7.63;;
5127;SDS011;2582;48.770;9.190;2023-10-19T14:23:56;9.13;;;8.30;;
5127;SDS011;2582;48.770;9.190;2023-10-19T14:26:22;10.00;;;9.10;;
5127;SDS011;2582;48.770;9.190;2023-10-19T14:28:47;7.97;;;7.23;;
5127;SDS011;2582;48.770;9.190;2023-10-19T14:31:13;9.10;;;8.30;;
5127;SDS011;2582;48.770;9.190;2023-10-19T14:33:39;8.43;;;7.57;;
5127;SDS011;2582;48.770;9.190;2023-10-19T14:36:05;9.23;;;8.20;;
5127;SDS011;2582;48.770;9.190;2023-10-19T14:38:31;6.47;;;5.90;;
5127;SDS011;2582;48.770;9.190;2023-10-19T14:40:57;7.90;;;7.23;;
5127;SDS011;2582;48.770;9.190;2023-10-19T14:43:23;10.30;;;9.30;;
5127;SDS011;2582;48.770;9.190;2023-10-19T14:45:50;9.87;;;8.87;;
5127;SDS011;2582;48.770;9.190;2023-10-19T14:48:16;8.43;;;7.70;;
5127;SDS011;2582;48.770;9.190;2023-10-19T14:50:44;10.30;;;9.40;;
5127;SDS011;2582;48.770;9.190;2023-10-19T14:53:10;11.33;;;9.83;;
5127;SDS011;2582;48.770;9.190;2023-10-19T14:55:36;11.87;;;10.77;;
5127;SDS011;2582;48.770;9.190;2023-10-19T14:58:02;13.10;;;11.87;;
5127;SDS011;2582;48.770;9.190;2023-10-19T15:00:31;12.17;;;10.90;;
5127;SDS011;2582;48.770;9.190;2023-10-19T15:03:02;13.33;;;11.27;;
5127;SDS011;2582;48.770;9.190;2023-10-19T15:05:35;14.27;;;12.83;;
5127;SDS011;2582;48.770;9.190;2023-10-19T15:08:02;12.97;;;10.13;;
5127;SDS011;2582;48.770;9.190;2023-10-19T15:10:31;10.80;;;9.80;;
5127;SDS011;2582;48.770;9.190;2023-10-19T15:12:58;12.33;;;10.73;;
5127;SDS011;2582;48.770;9.190;2023-10-19T15:15:28;11.20;;;10.30;;
5127;SDS011;2582;48.770;9.190;2023-10-19T15:17:54;11.53;;;10.33;;
5127;SDS011;2582;48.770;9.190;2023-10-19T15:20:27;10.60;;;9.70;;
5127;SDS011;2582;48.770;9.190;2023-10-19T15:22:55;11.43;;;9.43;;
5127;SDS011;2582;48.770;9.190;2023-10-19T15:25:21;12.03;;;10.73;;